Time;durP1;ratioP1;P1;durP2;ratioP2;P2;SDS_P1;SDS_P2;PMS_P1;PMS_P2;Temp;Humidity;BMP_temperature;BMP_pressure;BME280_temperature;BME280_humidity;BME280_pressure;Samples;Min_cycle;Max_cycle;Signal;HPM_P1;HPM_P2
2021/06/11 00:01:30;;;;;;;1.30;1.20;;;19.10;99.90;;;;;;5053060;28;20029;-79
2021/06/11 00:03:56;;;;;;;1.30;1.20;;;19.10;99.90;;;;;;5052927;28;20471;-82
2021/06/11 00:06:22;;;;;;;1.08;1.08;;;19.00;99.90;;;;;;5072473;28;20475;-80
2021/06/11 00:08:48;;;;;;;1.27;1.17;;;19.00;99.90;;;;;;5072466;28;20150;-79
2021/06/11 00:11:14;;;;;;;1.40;1.30;;;19.00;99.90;;;;;;5054470;28;20122;-77
2021/06/11 00:13:40;;;;;;;1.80;1.70;;;19.00;99.90;;;;;;5068988;28;20411;-78
2021/06/11 00:16:06;;;;;;;2.13;1.92;;;19.00;99.90;;;;;;5072564;28;20479;-78
2021/06/11 00:18:32;;;;;;;1.40;1.30;;;19.00;99.90;;;;;;5071909;28;20544;-79
2021/06/11 00:20:57;;;;;;;1.30;1.20;;;19.00;99.90;;;;;;5054765;28;20035;-80
2021/06/11 00:23:24;;;;;;;1.30;1.20;;;18.80;99.90;;;;;;5072620;28;20033;-79
2021/06/11 00:25:50;;;;;;;1.35;1.25;;;18.70;99.90;;;;;;5070047;28;20283;-81
2021/06/11 00:28:16;;;;;;;1.30;1.20;;;18.80;99.90;;;;;;5056138;28;20032;-77
2021/06/11 00:30:42;;;;;;;1.75;1.65;;;18.80;99.90;;;;;;5071853;28;20028;-79
2021/06/11 00:33:09;;;;;;;1.52;1.42;;;18.80;99.90;;;;;;5071629;28;20094;-79
2021/06/11 00:35:35;;;;;;;1.42;1.33;;;18.80;99.90;;;;;;5072435;28;20445;-79
2021/06/11 00:38:03;;;;;;;1.20;1.10;;;18.70;99.90;;;;;;5069509;28;20078;-78
2021/06/11 00:40:29;;;;;;;1.50;1.40;;;18.80;99.90;;;;;;5071818;28;20017;-79
2021/06/11 00:42:54;;;;;;;1.60;1.50;;;18.80;99.90;;;;;;5052350;28;20029;-79
2021/06/11 00:45:21;;;;;;;2.30;2.10;;;18.60;99.90;;;;;;5052803;28;20400;-78
2021/06/11 00:47:47;;;;;;;1.42;1.33;;;18.50;99.90;;;;;;5071211;28;20071;-78
2021/06/11 00:50:19;;;;;;;1.65;1.55;;;18.50;99.90;;;;;;5069693;28;20074;-79
2021/06/11 00:52:44;;;;;;;1.40;1.30;;;18.50;99.90;;;;;;5052953;28;20387;-77
2021/06/11 00:55:11;;;;;;;1.90;1.75;;;18.70;99.90;;;;;;5071941;28;20532;-77
2021/06/11 00:57:37;;;;;;;1.77;1.67;;;18.60;99.90;;;;;;5058979;28;20029;-79
2021/06/11 01:00:05;;;;;;;3.75;1.60;;;18.70;99.90;;;;;;5050829;28;20111;-77
2021/06/11 01:02:30;;;;;;;1.40;1.30;;;18.70;99.90;;;;;;5049961;28;20040;-77
2021/06/11 01:04:56;;;;;;;3.05;2.00;;;18.50;99.90;;;;;;5060897;28;20058;-77
2021/06/11 01:07:24;;;;;;;1.98;1.88;;;18.50;99.90;;;;;;5053403;28;20052;-78
2021/06/11 01:09:53;;;;;;;1.42;1.33;;;18.60;99.90;;;;;;5053830;28;20028;-76
2021/06/11 01:12:19;;;;;;;1.30;1.20;;;18.80;99.90;;;;;;5069515;28;20589;-77
2021/06/11 01:14:45;;;;;;;1.60;1.50;;;18.80;99.90;;;;;;5068643;28;20024;-77
2021/06/11 01:17:13;;;;;;;4.20;3.85;;;18.60;99.90;;;;;;5071762;28;20044;-77
2021/06/11 01:19:44;;;;;;;1.52;1.42;;;18.60;99.90;;;;;;5071335;28;20049;-77
2021/06/11 01:22:36;;;;;;;1.40;1.30;;;18.30;99.90;;;;;;5070897;28;20110;-77
2021/06/11 01:25:14;;;;;;;1.33;1.23;;;18.30;99.90;;;;;;5067323;28;20032;-77
2021/06/11 01:27:44;;;;;;;2.03;1.85;;;18.50;99.90;;;;;;5072420;28;20025;-77
2021/06/11 01:30:19;;;;;;;2.13;1.98;;;18.50;99.90;;;;;;5071008;28;20024;-77
2021/06/11 01:32:47;;;;;;;1.48;1.38;;;18.50;99.90;;;;;;5070380;28;20033;-76
2021/06/11 01:35:20;;;;;;;1.50;1.40;;;18.50;99.90;;;;;;5070978;28;20026;-77
2021/06/11 01:37:51;;;;;;;1.50;1.40;;;18.50;99.90;;;;;;5069163;28;20028;-76
2021/06/11 01:40:18;;;;;;;7.22;2.03;;;18.50;99.90;;;;;;5071293;28;20013;-77
2021/06/11 01:42:46;;;;;;;1.30;1.20;;;18.40;99.90;;;;;;5070385;28;20024;-76
2021/06/11 01:45:14;;;;;;;2.72;2.47;;;18.50;99.90;;;;;;5069722;28;20052;-78
2021/06/11 01:47:48;;;;;;;1.58;1.48;;;18.50;99.90;;;;;;5069614;28;20029;-78
2021/06/11 01:50:19;;;;;;;1.40;1.30;;;18.50;99.90;;;;;;5053826;28;20039;-77
2021/06/11 01:52:46;;;;;;;1.30;1.20;;;18.40;99.90;;;;;;5066752;28;20025;-77
2021/06/11 01:55:13;;;;;;;1.58;1.48;;;18.40;99.90;;;;;;5069538;28;20086;-80
2021/06/11 01:57:42;;;;;;;1.55;1.45;;;18.30;99.90;;;;;;5069561;28;20063;-79
2021/06/11 02:00:09;;;;;;;1.40;1.30;;;18.20;99.90;;;;;;5070439;28;20016;-78
2021/06/11 02:02:36;;;;;;;1.60;1.50;;;18.20;99.90;;;;;;5068469;28;20376;-78
2021/06/11 02:05:05;;;;;;;2.40;1.50;;;18.10;99.90;;;;;;5042704;28;20027;-80
2021/06/11 02:07:32;;;;;;;1.50;1.40;;;17.90;99.90;;;;;;5070113;28;20021;-78
2021/06/11 02:09:58;;;;;;;1.30;1.20;;;17.90;99.90;;;;;;5069755;28;20245;-77
2021/06/11 02:12:24;;;;;;;1.70;1.60;;;17.80;99.90;;;;;;5069783;28;20032;-77
2021/06/11 02:14:50;;;;;;;1.17;1.10;;;17.90;99.90;;;;;;5068334;28;20120;-76
2021/06/11 02:17:16;;;;;;;1.60;1.50;;;18.00;99.90;;;;;;5069749;28;20048;-76
2021/06/11 02:19:42;;;;;;;1.42;1.33;;;17.90;99.90;;;;;;5066597;28;20051;-78
2021/06/11 02:22:10;;;;;;;1.40;1.30;;;18.00;99.90;;;;;;5070204;28;20047;-76
2021/06/11 02:24:38;;;;;;;1.83;1.73;;;17.90;99.90;;;;;;5070693;28;20017;-75
2021/06/11 02:27:07;;;;;;;1.40;1.30;;;17.70;99.90;;;;;;5071025;28;20024;-74
2021/06/11 02:29:34;;;;;;;1.60;1.50;;;17.80;99.90;;;;;;5074654;28;20091;-74
2021/06/11 02:32:00;;;;;;;1.80;1.70;;;17.90;99.90;;;;;;5073908;28;20024;-77
2021/06/11 02:34:26;;;;;;;3.05;2.25;;;17.80;99.90;;;;;;5070511;28;20031;-78
2021/06/11 02:36:52;;;;;;;4.05;2.85;;;17.80;99.90;;;;;;5055163;28;20028;-76
2021/06/11 02:39:18;;;;;;;2.08;1.73;;;17.70;99.90;;;;;;5071967;28;20028;-77
2021/06/11 02:42:03;;;;;;;1.83;1.73;;;17.60;99.90;;;;;;5072759;28;20024;-76
2021/06/11 02:44:32;;;;;;;1.55;1.45;;;17.60;99.90;;;;;;5056317;28;20048;-77
2021/06/11 02:47:39;;;;;;;2.05;1.92;;;17.70;99.90;;;;;;5073368;28;20033;-78
2021/06/11 02:50:13;;;;;;;1.50;1.40;;;17.70;99.90;;;;;;5056722;28;20061;-78
2021/06/11 02:52:50;;;;;;;1.50;1.40;;;17.70;99.90;;;;;;5053623;28;20021;-81
2021/06/11 02:55:17;;;;;;;1.60;1.50;;;17.60;99.90;;;;;;5056520;28;20091;-77
2021/06/11 02:57:54;;;;;;;1.50;1.40;;;17.60;99.90;;;;;;5073626;28;20064;-78
2021/06/11 03:00:20;;;;;;;1.50;1.40;;;17.50;99.90;;;;;;5073283;28;20128;-80
2021/06/11 03:02:53;;;;;;;1.50;1.40;;;17.40;99.90;;;;;;5070784;28;20166;-79
2021/06/11 03:05:22;;;;;;;1.50;1.40;;;17.60;99.90;;;;;;5055393;28;20021;-82
2021/06/11 03:07:52;;;;;;;1.73;1.63;;;17.60;99.90;;;;;;5072891;28;20534;-80
2021/06/11 03:10:22;;;;;;;1.55;1.45;;;17.70;99.90;;;;;;5072653;28;20060;-80
2021/06/11 03:12:49;;;;;;;1.58;1.48;;;17.50;99.90;;;;;;5073114;28;20052;-78
2021/06/11 03:15:15;;;;;;;2.05;1.92;;;17.60;99.90;;;;;;5053008;28;20085;-78
2021/06/11 03:17:48;;;;;;;1.50;1.40;;;17.30;99.90;;;;;;5073000;28;20076;-80
2021/06/11 03:20:19;;;;;;;2.30;2.13;;;16.80;99.90;;;;;;5072730;28;20404;-79
2021/06/11 03:22:56;;;;;;;2.50;2.30;;;17.20;99.90;;;;;;5072952;28;20017;-78
2021/06/11 03:25:47;;;;;;;1.90;1.80;;;17.50;99.90;;;;;;5054244;28;20034;-80
2021/06/11 03:28:52;;;;;;;1.50;1.40;;;17.70;99.90;;;;;;5088043;28;20032;-81
2021/06/11 03:31:48;;;;;;;1.42;1.33;;;17.70;99.90;;;;;;5092987;28;20035;-84
2021/06/11 03:34:27;;;;;;;2.40;2.20;;;17.50;99.90;;;;;;5054477;28;20499;-81
2021/06/11 03:36:55;;;;;;;1.63;1.52;;;17.50;99.90;;;;;;5071338;28;20040;-80
2021/06/11 03:39:28;;;;;;;2.08;1.85;;;17.60;99.90;;;;;;5054149;28;20368;-79
2021/06/11 03:41:55;;;;;;;3.22;1.90;;;17.60;99.90;;;;;;5053993;28;20128;-79
2021/06/11 03:44:22;;;;;;;2.78;2.58;;;17.60;99.90;;;;;;5072895;28;20025;-80
2021/06/11 03:46:50;;;;;;;1.70;1.60;;;17.60;99.90;;;;;;5072697;28;20039;-79
2021/06/11 03:49:19;;;;;;;1.60;1.50;;;17.80;99.90;;;;;;5052785;28;20020;-78
2021/06/11 03:51:46;;;;;;;2.08;1.98;;;17.90;99.90;;;;;;5071944;28;20066;-80
2021/06/11 03:54:13;;;;;;;1.90;1.80;;;17.90;99.90;;;;;;5073039;28;20025;-79
2021/06/11 03:56:40;;;;;;;4.60;2.85;;;17.80;99.90;;;;;;5071315;28;20078;-79
2021/06/11 03:59:13;;;;;;;2.40;2.20;;;17.70;99.90;;;;;;5072625;28;20421;-82
2021/06/11 04:01:43;;;;;;;1.70;1.60;;;17.70;99.90;;;;;;5070104;28;20079;-80
2021/06/11 04:04:09;;;;;;;2.20;2.08;;;17.90;99.90;;;;;;5068578;28;20134;-77
2021/06/11 04:06:39;;;;;;;1.40;1.30;;;17.80;99.90;;;;;;5071907;28;20033;-78
2021/06/11 04:09:08;;;;;;;1.48;1.38;;;17.80;99.90;;;;;;5072602;28;20033;-78
2021/06/11 04:11:42;;;;;;;1.50;1.40;;;18.00;99.90;;;;;;5071659;28;20032;-81
2021/06/11 04:14:14;;;;;;;1.58;1.48;;;17.80;99.90;;;;;;5070257;28;20521;-77
2021/06/11 04:16:46;;;;;;;3.28;2.75;;;17.80;99.90;;;;;;5053233;28;20106;-77
2021/06/11 04:19:45;;;;;;;1.73;1.63;;;18.00;99.90;;;;;;5069071;28;20047;-78
2021/06/11 04:22:13;;;;;;;1.40;1.30;;;18.10;99.90;;;;;;5063942;28;20067;-79
2021/06/11 04:24:45;;;;;;;1.30;1.20;;;18.10;99.90;;;;;;5070612;28;20111;-78
2021/06/11 04:27:12;;;;;;;1.98;1.83;;;18.20;99.90;;;;;;5070236;28;20111;-78
2021/06/11 04:29:39;;;;;;;1.80;1.70;;;18.20;99.90;;;;;;5072612;28;20028;-78
2021/06/11 04:32:06;;;;;;;1.50;1.40;;;18.20;99.90;;;;;;5071003;28;20033;-78
2021/06/11 04:34:31;;;;;;;1.75;1.65;;;18.40;99.90;;;;;;5071627;28;20603;-80
2021/06/11 04:36:57;;;;;;;1.45;1.35;;;18.50;99.90;;;;;;5069223;28;20029;-78
2021/06/11 04:39:23;;;;;;;1.65;1.55;;;18.60;99.90;;;;;;5053202;28;20028;-81
2021/06/11 04:41:49;;;;;;;1.75;1.65;;;18.60;99.90;;;;;;5070867;28;20036;-81
2021/06/11 04:44:15;;;;;;;1.52;1.42;;;18.60;99.90;;;;;;5071964;28;20070;-78
2021/06/11 04:46:40;;;;;;;1.92;1.75;;;18.60;99.90;;;;;;5070785;28;20047;-77
2021/06/11 04:49:07;;;;;;;1.40;1.30;;;18.70;99.90;;;;;;5049664;28;20020;-82
2021/06/11 04:51:34;;;;;;;1.48;1.38;;;18.80;99.90;;;;;;5071297;28;20028;-79
2021/06/11 04:54:00;;;;;;;1.27;1.17;;;18.80;99.90;;;;;;5071364;28;20572;-81
2021/06/11 04:56:26;;;;;;;1.42;1.33;;;18.80;99.90;;;;;;5052621;28;20039;-79
2021/06/11 04:58:54;;;;;;;1.48;1.38;;;18.90;99.90;;;;;;5053783;28;20408;-79
2021/06/11 05:01:21;;;;;;;1.77;1.67;;;18.90;99.90;;;;;;5068052;28;20029;-80
2021/06/11 05:03:47;;;;;;;2.55;1.77;;;18.90;99.90;;;;;;5067998;28;20029;-78
2021/06/11 05:06:13;;;;;;;1.35;1.25;;;18.90;99.90;;;;;;5070694;28;20028;-79
2021/06/11 05:08:40;;;;;;;1.38;1.27;;;18.90;99.90;;;;;;5070806;28;20024;-80
2021/06/11 05:11:06;;;;;;;1.15;1.10;;;18.90;99.90;;;;;;5070649;28;20043;-79
2021/06/11 05:13:32;;;;;;;1.40;1.30;;;19.10;99.90;;;;;;5068931;28;20016;-80
2021/06/11 05:15:58;;;;;;;1.20;1.10;;;19.20;99.90;;;;;;5069629;28;20025;-83
2021/06/11 05:18:30;;;;;;;1.55;1.45;;;19.30;99.90;;;;;;5070694;28;20032;-78
2021/06/11 05:20:57;;;;;;;1.40;1.30;;;19.40;99.90;;;;;;5068587;28;20025;-79
2021/06/11 05:23:23;;;;;;;1.73;1.63;;;19.50;99.90;;;;;;5070308;28;20062;-79
2021/06/11 05:25:50;;;;;;;1.30;1.20;;;19.40;99.90;;;;;;5068955;28;20067;-77
2021/06/11 05:28:17;;;;;;;1.98;1.88;;;19.50;99.90;;;;;;5084149;28;20028;-77
2021/06/11 05:30:43;;;;;;;1.38;1.27;;;19.50;99.90;;;;;;5090403;28;20017;-76
2021/06/11 05:33:09;;;;;;;1.65;1.55;;;19.50;99.90;;;;;;5091331;28;20055;-78
2021/06/11 05:35:35;;;;;;;1.77;1.67;;;19.60;99.90;;;;;;5067097;28;20491;-78
2021/06/11 05:38:05;;;;;;;1.15;1.10;;;19.60;99.90;;;;;;5069420;28;20043;-76
2021/06/11 05:40:35;;;;;;;1.10;1.10;;;19.60;99.90;;;;;;5052076;28;20025;-79
2021/06/11 05:43:02;;;;;;;1.00;1.00;;;19.50;99.90;;;;;;5053179;28;20453;-78
2021/06/11 05:45:29;;;;;;;2.10;1.90;;;19.50;99.90;;;;;;5070719;28;20567;-79
2021/06/11 05:47:55;;;;;;;1.75;1.65;;;19.60;99.90;;;;;;5050060;28;20035;-80
2021/06/11 05:50:21;;;;;;;1.70;1.60;;;19.70;99.90;;;;;;5058108;28;20036;-78
2021/06/11 05:52:47;;;;;;;6.03;4.80;;;19.90;99.90;;;;;;5069533;28;20024;-81
2021/06/11 05:55:14;;;;;;;6.65;6.00;;;20.10;99.90;;;;;;5051868;28;20036;-79
2021/06/11 05:57:41;;;;;;;4.60;3.42;;;20.20;99.90;;;;;;5070750;28;20033;-78
2021/06/11 06:00:08;;;;;;;3.13;2.83;;;20.40;99.90;;;;;;5069328;28;20491;-79
2021/06/11 06:02:34;;;;;;;1.42;1.33;;;20.50;99.90;;;;;;5077512;28;20040;-80
2021/06/11 06:05:00;;;;;;;1.92;1.75;;;20.50;99.90;;;;;;5077357;28;20043;-77
2021/06/11 06:07:26;;;;;;;1.33;1.23;;;20.40;99.90;;;;;;5076632;28;20098;-77
2021/06/11 06:09:52;;;;;;;1.75;1.63;;;20.30;99.90;;;;;;5076643;28;20027;-77
2021/06/11 06:12:18;;;;;;;1.27;1.17;;;20.30;99.90;;;;;;5056289;28;20025;-77
2021/06/11 06:14:43;;;;;;;1.45;1.35;;;20.40;99.90;;;;;;5077472;28;20451;-78
2021/06/11 06:17:09;;;;;;;1.70;1.58;;;20.50;99.90;;;;;;5076250;28;20044;-79
2021/06/11 06:19:35;;;;;;;1.17;1.10;;;20.50;99.90;;;;;;5076295;28;20050;-79
2021/06/11 06:22:01;;;;;;;0.90;0.90;;;20.50;99.90;;;;;;5077024;28;20055;-77
2021/06/11 06:24:26;;;;;;;1.27;1.17;;;20.50;99.90;;;;;;5074424;28;20495;-77
2021/06/11 06:26:52;;;;;;;5.85;2.35;;;20.30;99.90;;;;;;5076888;28;20455;-78
2021/06/11 06:29:18;;;;;;;1.10;1.10;;;20.60;99.90;;;;;;5097646;28;20039;-77
2021/06/11 06:31:44;;;;;;;1.25;1.15;;;20.80;99.90;;;;;;5096521;28;20111;-79
2021/06/11 06:34:10;;;;;;;0.80;0.80;;;20.90;99.90;;;;;;5086902;28;20111;-78
2021/06/11 06:36:36;;;;;;;1.13;1.10;;;21.10;99.90;;;;;;5073641;28;20465;-77
2021/06/11 06:39:06;;;;;;;3.50;1.95;;;21.30;99.90;;;;;;5076563;28;20035;-76
2021/06/11 06:41:33;;;;;;;0.80;0.80;;;21.20;99.90;;;;;;5076497;28;20063;-79
2021/06/11 06:43:58;;;;;;;0.75;0.75;;;21.40;99.90;;;;;;5077124;28;20029;-77
2021/06/11 06:46:24;;;;;;;1.98;1.77;;;21.40;99.90;;;;;;5056850;28;20126;-78
2021/06/11 06:48:52;;;;;;;1.15;1.05;;;21.40;99.90;;;;;;5075340;28;20103;-78
2021/06/11 06:51:20;;;;;;;2.17;1.83;;;21.30;99.90;;;;;;5076078;28;20518;-78
2021/06/11 06:53:47;;;;;;;1.38;1.27;;;21.30;99.90;;;;;;5077325;28;20025;-80
2021/06/11 06:56:13;;;;;;;3.13;2.92;;;21.50;99.90;;;;;;5059568;28;20043;-77
2021/06/11 06:58:39;;;;;;;1.20;1.10;;;21.40;99.90;;;;;;5076889;28;20039;-77
2021/06/11 07:01:05;;;;;;;2.30;1.63;;;21.50;99.90;;;;;;5077618;28;20024;-76
2021/06/11 07:03:32;;;;;;;1.38;1.27;;;21.50;99.90;;;;;;5076909;28;20380;-78
2021/06/11 07:05:58;;;;;;;2.22;2.08;;;21.70;99.90;;;;;;5076515;28;20042;-79
2021/06/11 07:08:31;;;;;;;0.88;0.88;;;21.90;99.90;;;;;;5059039;28;20029;-77
2021/06/11 07:10:58;;;;;;;1.70;1.60;;;22.00;99.90;;;;;;5059322;28;20020;-78
2021/06/11 07:13:24;;;;;;;0.80;0.80;;;22.10;99.90;;;;;;5072794;28;20115;-77
2021/06/11 07:15:50;;;;;;;0.80;0.80;;;22.30;99.90;;;;;;5074295;28;20127;-77
2021/06/11 07:18:17;;;;;;;2.55;2.35;;;22.30;99.90;;;;;;5073299;28;20148;-79
2021/06/11 07:20:42;;;;;;;1.23;1.15;;;22.50;99.90;;;;;;5073861;28;20017;-82
2021/06/11 07:23:08;;;;;;;1.05;1.00;;;22.60;99.90;;;;;;5073835;28;20027;-77
2021/06/11 07:25:34;;;;;;;1.15;1.05;;;22.80;99.90;;;;;;5055981;28;20025;-78
2021/06/11 07:28:00;;;;;;;0.70;0.70;;;22.70;99.90;;;;;;5081860;28;20030;-79
2021/06/11 07:30:26;;;;;;;1.25;1.20;;;22.90;99.90;;;;;;5094416;28;20048;-79
2021/06/11 07:32:51;;;;;;;2.63;2.40;;;23.00;99.90;;;;;;5094243;28;20472;-81
2021/06/11 07:35:18;;;;;;;5.13;4.63;;;23.10;99.90;;;;;;5075373;28;20475;-77
2021/06/11 07:37:44;;;;;;;2.08;1.90;;;23.20;99.90;;;;;;5093842;28;20141;-79
2021/06/11 07:40:11;;;;;;;1.58;1.33;;;23.20;99.90;;;;;;5093660;28;20474;-79
2021/06/11 07:42:37;;;;;;;1.05;1.05;;;23.10;99.90;;;;;;5093665;28;20028;-80
2021/06/11 07:45:05;;;;;;;0.93;0.93;;;23.10;99.90;;;;;;5093676;28;20044;-80
2021/06/11 07:47:31;;;;;;;1.73;1.60;;;23.10;99.90;;;;;;5093556;28;20042;-79
2021/06/11 07:49:57;;;;;;;0.75;0.75;;;23.20;99.90;;;;;;5093781;28;20016;-85
2021/06/11 07:52:23;;;;;;;2.25;1.15;;;23.20;99.90;;;;;;5093718;28;20032;-81
2021/06/11 07:54:48;;;;;;;0.90;0.90;;;23.30;99.90;;;;;;5075417;28;20024;-83
2021/06/11 07:57:14;;;;;;;1.15;1.10;;;23.40;99.90;;;;;;5093332;28;20617;-82
2021/06/11 07:59:42;;;;;;;2.40;1.50;;;23.40;99.90;;;;;;5093331;28;20050;-84
2021/06/11 08:02:08;;;;;;;1.17;1.08;;;23.50;99.90;;;;;;5075178;28;20051;-80
2021/06/11 08:04:33;;;;;;;0.93;0.90;;;23.60;99.90;;;;;;5074992;28;20024;-84
2021/06/11 08:06:59;;;;;;;1.35;1.13;;;23.70;99.90;;;;;;5074793;28;20035;-77
2021/06/11 08:09:29;;;;;;;0.60;0.60;;;23.70;99.60;;;;;;5075241;28;20024;-82
2021/06/11 08:11:55;;;;;;;0.70;0.70;;;23.70;99.50;;;;;;5075086;28;20046;-84
2021/06/11 08:14:21;;;;;;;0.60;0.60;;;23.80;99.40;;;;;;5092774;28;20020;-84
2021/06/11 08:16:47;;;;;;;1.83;1.60;;;23.90;99.20;;;;;;5103927;28;20131;-96
2021/06/11 08:19:12;;;;;;;1.35;1.25;;;24.10;98.90;;;;;;5101561;28;20031;-91
2021/06/11 08:21:38;;;;;;;6.47;1.92;;;24.10;98.50;;;;;;5094580;28;20044;-82
2021/06/11 08:24:04;;;;;;;1.00;1.00;;;24.30;98.60;;;;;;5094275;28;20038;-81
2021/06/11 08:26:30;;;;;;;0.80;0.80;;;24.10;97.90;;;;;;5095724;28;20051;-89
2021/06/11 08:28:56;;;;;;;2.20;2.00;;;24.30;97.90;;;;;;5062864;28;20079;-87
2021/06/11 08:31:21;;;;;;;4.88;1.50;;;24.30;97.40;;;;;;5060100;28;20032;-91
2021/06/11 08:33:47;;;;;;;1.50;1.40;;;24.40;97.50;;;;;;5056036;28;20383;-86
2021/06/11 08:36:14;;;;;;;1.42;1.33;;;24.50;97.90;;;;;;5074687;28;20021;-80
2021/06/11 08:38:40;;;;;;;1.33;1.23;;;24.40;97.00;;;;;;5075944;28;20422;-92
2021/06/11 08:41:09;;;;;;;0.95;0.95;;;24.40;97.20;;;;;;5074854;28;20475;-85
2021/06/11 08:43:35;;;;;;;0.50;0.50;;;24.50;96.80;;;;;;5074075;28;20024;-81
2021/06/11 08:46:01;;;;;;;0.70;0.70;;;24.50;96.40;;;;;;5054047;28;20085;-85
2021/06/11 08:48:27;;;;;;;0.57;0.57;;;24.40;96.00;;;;;;5055005;28;20032;-78
2021/06/11 08:50:53;;;;;;;1.45;1.33;;;24.60;96.00;;;;;;5072262;28;20029;-79
2021/06/11 08:53:19;;;;;;;13.35;1.95;;;24.00;95.40;;;;;;5054399;28;20024;-83
2021/06/11 08:55:54;;;;;;;1.42;1.33;;;24.20;95.90;;;;;;5055647;28;20395;-82
2021/06/11 08:58:19;;;;;;;1.50;1.23;;;24.50;96.20;;;;;;5073698;28;20033;-82
2021/06/11 09:00:48;;;;;;;0.73;0.73;;;24.70;95.30;;;;;;5055998;28;20376;-81
2021/06/11 09:03:35;;;;;;;1.40;1.30;;;24.90;95.10;;;;;;5079021;28;20029;-82
2021/06/11 09:06:05;;;;;;;0.60;0.60;;;25.10;95.00;;;;;;5077881;28;20025;-87
2021/06/11 09:08:32;;;;;;;0.55;0.55;;;25.30;94.70;;;;;;5073667;28;20028;-92
2021/06/11 09:11:18;;;;;;;1.27;1.17;;;25.30;93.60;;;;;;5056882;28;20021;-84
2021/06/11 09:13:48;;;;;;;2.00;1.65;;;25.10;92.80;;;;;;5056364;28;20028;-94
2021/06/11 09:16:14;;;;;;;2.38;0.93;;;25.00;93.10;;;;;;5078752;28;20356;-82
2021/06/11 09:18:55;;;;;;;1.35;1.15;;;25.20;93.00;;;;;;5057116;28;20033;-83
2021/06/11 09:21:28;;;;;;;1.30;1.20;;;25.40;92.80;;;;;;5055966;28;20418;-81
2021/06/11 09:24:27;;;;;;;2.65;1.80;;;25.80;92.10;;;;;;5055084;28;20162;-81
2021/06/11 09:27:12;;;;;;;1.40;1.30;;;25.60;91.70;;;;;;5071776;28;20024;-78
2021/06/11 09:29:43;;;;;;;0.73;0.73;;;24.80;91.20;;;;;;5090162;28;20065;-76
2021/06/11 09:32:30;;;;;;;0.63;0.60;;;25.40;91.40;;;;;;5090987;28;20365;-78
2021/06/11 09:35:03;;;;;;;0.60;0.60;;;25.30;90.20;;;;;;5090774;28;20099;-80
2021/06/11 09:37:34;;;;;;;0.65;0.65;;;25.10;89.70;;;;;;5091029;28;20099;-78
2021/06/11 09:40:10;;;;;;;0.55;0.55;;;25.50;86.60;;;;;;5090961;28;20374;-77
2021/06/11 09:42:39;;;;;;;0.70;0.70;;;25.60;83.20;;;;;;5091193;28;20322;-78
2021/06/11 09:45:11;;;;;;;0.52;0.52;;;24.90;83.70;;;;;;5091402;28;20075;-78
2021/06/11 09:47:38;;;;;;;0.57;0.57;;;24.50;85.80;;;;;;5091825;28;20083;-78
2021/06/11 09:50:07;;;;;;;0.45;0.45;;;24.90;85.70;;;;;;5091061;28;20057;-79
2021/06/11 09:52:35;;;;;;;0.53;0.53;;;25.00;85.30;;;;;;5091257;28;20107;-78
2021/06/11 09:55:06;;;;;;;0.57;0.57;;;24.30;86.60;;;;;;5091765;28;20028;-80
2021/06/11 09:57:34;;;;;;;0.55;0.55;;;24.70;86.40;;;;;;5058434;28;20029;-79
2021/06/11 10:00:00;;;;;;;0.50;0.50;;;24.90;85.50;;;;;;5058407;28;20032;-77
2021/06/11 10:02:31;;;;;;;0.82;0.80;;;24.60;85.70;;;;;;5056090;28;20025;-77
2021/06/11 10:04:58;;;;;;;0.73;0.73;;;24.60;88.50;;;;;;5058137;28;20058;-78
2021/06/11 10:07:24;;;;;;;0.40;0.40;;;24.90;88.70;;;;;;5060573;28;20107;-77
2021/06/11 10:09:50;;;;;;;0.50;0.50;;;25.10;86.70;;;;;;5040674;28;20029;-78
2021/06/11 10:12:16;;;;;;;1.40;1.30;;;25.20;87.40;;;;;;5058060;28;20048;-78
2021/06/11 10:14:42;;;;;;;0.73;0.73;;;25.30;87.80;;;;;;5040086;28;20021;-76
2021/06/11 10:17:08;;;;;;;1.65;1.30;;;25.00;87.00;;;;;;5037766;28;20045;-75
2021/06/11 10:19:37;;;;;;;3.28;1.55;;;25.00;88.60;;;;;;5055790;28;20048;-77
2021/06/11 10:22:05;;;;;;;0.85;0.82;;;25.30;89.60;;;;;;5057454;28;20078;-76
2021/06/11 10:24:32;;;;;;;0.60;0.60;;;24.90;85.40;;;;;;5060685;28;20111;-76
2021/06/11 10:26:59;;;;;;;0.70;0.70;;;24.60;86.30;;;;;;5041889;28;20259;-77
2021/06/11 10:29:25;;;;;;;0.88;0.85;;;24.50;82.80;;;;;;5045197;28;20116;-75
2021/06/11 10:31:51;;;;;;;0.40;0.40;;;24.60;79.30;;;;;;5058734;28;20301;-76
2021/06/11 10:34:17;;;;;;;0.90;0.85;;;24.80;80.20;;;;;;5059980;28;20086;-76
2021/06/11 10:36:44;;;;;;;0.45;0.45;;;24.90;77.40;;;;;;5062845;28;20024;-77
2021/06/11 10:39:10;;;;;;;0.50;0.50;;;24.90;78.70;;;;;;5071236;28;20211;-77
2021/06/11 10:42:07;;;;;;;0.70;0.70;;;24.40;79.60;;;;;;5070340;28;20430;-75
2021/06/11 10:44:36;;;;;;;1.33;1.23;;;24.50;79.90;;;;;;5039837;28;20132;-75
2021/06/11 10:47:25;;;;;;;0.93;0.77;;;24.50;80.20;;;;;;5037591;28;20024;-76
2021/06/11 10:52:46;;;;;;;1.20;1.10;;;24.50;77.40;;;;;;5067984;28;20043;-76
2021/06/11 10:55:18;;;;;;;0.50;0.50;;;24.70;76.30;;;;;;5073936;28;20371;-76
2021/06/11 10:57:52;;;;;;;7.53;1.05;;;24.60;76.50;;;;;;5074409;28;20428;-76
2021/06/11 11:00:26;;;;;;;0.63;0.63;;;24.50;77.10;;;;;;5073962;28;20034;-74
2021/06/11 11:02:57;;;;;;;1.42;1.13;;;24.60;75.10;;;;;;5074268;28;20460;-76
2021/06/11 11:05:27;;;;;;;0.52;0.52;;;24.40;77.00;;;;;;5074025;28;20096;-79
2021/06/11 11:07:54;;;;;;;0.95;0.93;;;24.40;78.80;;;;;;5073758;28;20025;-78
2021/06/11 11:10:47;;;;;;;0.63;0.63;;;24.40;79.50;;;;;;5055762;28;20487;-80
2021/06/11 11:13:18;;;;;;;0.57;0.57;;;24.70;79.30;;;;;;5074054;28;20523;-79
2021/06/11 11:15:49;;;;;;;0.80;0.80;;;24.80;78.30;;;;;;5074063;28;20025;-80
2021/06/11 11:18:24;;;;;;;0.50;0.50;;;25.00;78.50;;;;;;5056166;28;20048;-78
2021/06/11 11:20:51;;;;;;;1.10;1.00;;;25.10;80.50;;;;;;5073157;28;20054;-79
2021/06/11 11:23:20;;;;;;;0.90;0.90;;;24.70;81.20;;;;;;5073524;28;20028;-77
2021/06/11 11:25:47;;;;;;;0.50;0.50;;;24.80;82.20;;;;;;5073304;28;20104;-78
2021/06/11 11:29:01;;;;;;;0.50;0.50;;;24.80;81.60;;;;;;5108976;27;20431;-77
2021/06/11 11:31:27;;;;;;;0.60;0.60;;;24.80;83.70;;;;;;5065430;28;20044;-78
2021/06/11 11:33:52;;;;;;;0.60;0.60;;;24.70;86.30;;;;;;5066848;28;20108;-82
2021/06/11 11:36:18;;;;;;;0.60;0.60;;;24.60;89.40;;;;;;5066786;28;20029;-78
2021/06/11 11:38:44;;;;;;;1.25;1.15;;;24.30;89.80;;;;;;5066799;28;20032;-77
2021/06/11 11:41:10;;;;;;;1.48;1.15;;;24.10;90.70;;;;;;5066961;28;20021;-77
2021/06/11 11:43:36;;;;;;;1.48;1.17;;;24.30;90.70;;;;;;5067467;28;20484;-78
2021/06/11 11:46:02;;;;;;;0.50;0.50;;;24.10;90.30;;;;;;5068257;28;20128;-76
2021/06/11 11:48:27;;;;;;;0.60;0.60;;;24.20;91.00;;;;;;5067065;28;20037;-77
2021/06/11 11:50:53;;;;;;;0.63;0.63;;;24.30;90.60;;;;;;5068049;28;20025;-78
2021/06/11 11:53:19;;;;;;;0.63;0.63;;;24.40;91.10;;;;;;5066778;28;20083;-77
2021/06/11 11:55:45;;;;;;;1.40;1.30;;;24.30;90.40;;;;;;5066972;28;20025;-77
2021/06/11 11:58:12;;;;;;;1.15;1.05;;;24.30;90.50;;;;;;5068402;28;20025;-78
2021/06/11 12:00:37;;;;;;;0.55;0.55;;;24.30;90.30;;;;;;5067700;28;20111;-78
2021/06/11 12:03:03;;;;;;;1.40;1.00;;;24.20;90.40;;;;;;5068086;28;20116;-78
2021/06/11 12:05:29;;;;;;;0.75;0.75;;;24.40;90.00;;;;;;5068162;28;20028;-79
2021/06/11 12:07:55;;;;;;;1.35;1.25;;;24.40;90.10;;;;;;5063180;28;20399;-76
2021/06/11 12:10:21;;;;;;;1.48;1.15;;;24.30;90.40;;;;;;5067636;28;20094;-77
2021/06/11 12:12:47;;;;;;;0.77;0.77;;;24.80;90.10;;;;;;5067699;28;20178;-78
2021/06/11 12:15:13;;;;;;;0.60;0.60;;;24.80;88.30;;;;;;5067330;28;20486;-77
2021/06/11 12:17:39;;;;;;;0.60;0.60;;;24.80;88.30;;;;;;5066843;28;20077;-78
2021/06/11 12:20:05;;;;;;;0.55;0.55;;;24.60;88.90;;;;;;5067650;28;20025;-78
2021/06/11 12:22:31;;;;;;;0.80;0.80;;;25.20;87.40;;;;;;5065975;28;20032;-80
2021/06/11 12:24:57;;;;;;;1.10;0.90;;;26.00;85.70;;;;;;5067446;28;20021;-79
2021/06/11 12:27:22;;;;;;;1.45;0.90;;;25.80;82.50;;;;;;5066943;28;20178;-79
2021/06/11 12:29:48;;;;;;;0.60;0.60;;;25.90;84.90;;;;;;5086231;28;20112;-77
2021/06/11 12:32:14;;;;;;;0.40;0.40;;;25.90;81.90;;;;;;5074647;28;20455;-78
2021/06/11 12:34:40;;;;;;;0.60;0.60;;;26.20;82.30;;;;;;5067435;28;20032;-78
2021/06/11 12:37:07;;;;;;;5.28;1.80;;;26.20;79.50;;;;;;5066728;28;20033;-78
2021/06/11 12:39:33;;;;;;;0.45;0.45;;;25.70;79.10;;;;;;5056040;28;20021;-78
2021/06/11 12:42:10;;;;;;;2.63;1.02;;;25.90;78.90;;;;;;5053411;28;20423;-78
2021/06/11 12:44:39;;;;;;;0.68;0.65;;;26.60;76.60;;;;;;5052405;28;20036;-82
2021/06/11 12:47:13;;;;;;;0.30;0.30;;;26.70;74.10;;;;;;5053570;28;20037;-77
2021/06/11 12:49:40;;;;;;;0.50;0.50;;;26.40;74.50;;;;;;5053738;28;20013;-80
2021/06/11 12:52:06;;;;;;;1.33;0.98;;;27.60;73.20;;;;;;5052816;28;20029;-78
2021/06/11 12:54:32;;;;;;;0.30;0.30;;;28.40;71.40;;;;;;5053594;28;20032;-76
2021/06/11 12:56:58;;;;;;;0.70;0.70;;;28.40;69.10;;;;;;5053249;28;20033;-78
2021/06/11 12:59:24;;;;;;;0.40;0.40;;;27.80;67.80;;;;;;5053348;28;20027;-76